デリー の空港の天気 - METARとTAF

インディラ・ガンディー国際空港 ( VIDP / DEL ) - インド デリー
飛行場実況気象(Metar)
観測時間06/29 07:00 IST (06/29 01:30 UTC)
風向・風速東 3m/s
視程2500m
天気現象もや
全天の4割程度の雲 雲底高度 910m
少しの雲 雲底高度 1070m
全天を覆う雲 雲底高度 2440m
気温27℃
湿度89%
気圧1002hPa
METARVIDP 290130Z 09006KT 2500 BR SCT030 FEW035CB OVC080 27/25 Q1002 TEMPO TSRA
過去の天気等 Google飛行場航空写真 Wunderground天気予報

過去48時間のMETAR

飛行場予報(TAF)
発表時間: 6/29 04:30 IST (6/28 23:00 UTC)
予報対象時間: 29日5時 IST ~ 30日11時 IST
風向・風速南東 3m/s
視程1,800m
天気現象もや 弱い雨
全天の4割程度の雲 雲底高度 910m
全天の8割程度の雲 雲底高度 3,050m
29日10時 IST ~ 29日12時 IST に徐々に
視程3,500m
天気現象もや 煙霧
29日11時 IST ~ 29日17時 IST に一時的に
視程1,500m
天気現象雷雨
少しの積乱雲 雲底高度 910m
全天を覆う雲 雲底高度 2,440m
29日22時 IST ~ 30日24時 IST に徐々に
視程2,500m
天気現象煙霧 もや
29日23時 IST ~ 30日3時 IST に一時的に
少しの積乱雲 雲底高度 910m
全天を覆う雲 雲底高度 2,440m
30日9時 IST ~ 30日10時 IST に徐々に
風向・風速東北東 3m/s
視程3,500m
天気現象もや 煙霧
少しの雲 雲底高度 910m
全天の4割程度の雲 雲底高度 3,050m
TAF VIDP 282300Z 2900/3006 13006KT 1800 BR -RA SCT030 BKN100
BECMG 2905/2907 3500 BR HZ
TEMPO 2906/2912 1500 TSRA FEW030CB OVC080
BECMG 2917/2919 2500 HZ BR
TEMPO 2918/2922 FEW030CB OVC080
BECMG 3004/3005 07005KT 3500 BR HZ FEW030 SCT100